Time;durP1;ratioP1;P1;durP2;ratioP2;P2;SDS_P1;SDS_P2;PMS_P1;PMS_P2;Temp;Humidity;BMP_temperature;BMP_pressure;BME280_temperature;BME280_humidity;BME280_pressure;Samples;Min_cycle;Max_cycle;Signal;HPM_P1;HPM_P2
2020/12/30 00:01:26;;;;;;;97.35;43.10;;;6.10;92.10;;;;;;5057021;28;20027;-79
2020/12/30 00:03:52;;;;;;;101.35;43.60;;;6.10;92.10;;;;;;5056771;28;20031;-79
2020/12/30 00:06:19;;;;;;;104.25;44.22;;;6.10;92.10;;;;;;5055421;28;20428;-79
2020/12/30 00:08:46;;;;;;;90.97;41.83;;;6.10;92.20;;;;;;5056526;28;20025;-79
2020/12/30 00:11:12;;;;;;;96.88;44.20;;;6.10;92.10;;;;;;5055352;28;20036;-79
2020/12/30 00:13:38;;;;;;;90.70;40.53;;;6.20;92.10;;;;;;5056470;28;20033;-79
2020/12/30 00:16:04;;;;;;;90.43;40.50;;;6.10;92.10;;;;;;5056458;28;20056;-79
2020/12/30 00:18:30;;;;;;;96.05;43.13;;;6.20;92.10;;;;;;5056204;28;20116;-79
2020/12/30 00:20:56;;;;;;;82.75;38.28;;;6.20;92.30;;;;;;5055386;28;20025;-79
2020/12/30 00:23:23;;;;;;;90.90;38.78;;;6.20;92.20;;;;;;5056250;28;20021;-79
2020/12/30 00:25:50;;;;;;;91.32;40.13;;;6.20;92.10;;;;;;5056376;28;20078;-79
2020/12/30 00:28:15;;;;;;;97.20;39.08;;;6.20;92.10;;;;;;5054877;28;20029;-80
2020/12/30 00:30:41;;;;;;;89.45;39.67;;;6.20;92.20;;;;;;5056572;28;20478;-79
2020/12/30 00:33:07;;;;;;;112.32;43.88;;;6.20;92.40;;;;;;5055027;28;20033;-79
2020/12/30 00:35:32;;;;;;;67.20;33.63;;;6.20;92.60;;;;;;5054819;28;20059;-79
2020/12/30 00:37:58;;;;;;;102.25;39.17;;;6.20;92.40;;;;;;5055999;28;20045;-79
2020/12/30 00:40:24;;;;;;;77.40;34.35;;;6.30;92.40;;;;;;5055980;28;20117;-79
2020/12/30 00:42:50;;;;;;;76.30;32.97;;;6.30;92.30;;;;;;5055115;28;20025;-79
2020/12/30 00:45:15;;;;;;;68.28;31.70;;;6.20;92.20;;;;;;5054698;28;20876;-79
2020/12/30 00:47:41;;;;;;;86.88;33.65;;;6.30;92.20;;;;;;5054737;28;20029;-79
2020/12/30 00:50:07;;;;;;;88.90;33.88;;;6.30;92.30;;;;;;5055829;28;20028;-79
2020/12/30 00:52:34;;;;;;;78.15;32.38;;;6.20;92.20;;;;;;5055862;28;20467;-79
2020/12/30 00:55:00;;;;;;;85.25;33.63;;;6.20;92.10;;;;;;5055924;28;20021;-79
2020/12/30 00:57:25;;;;;;;93.13;33.75;;;6.20;92.20;;;;;;5055563;28;20024;-79
2020/12/30 00:59:51;;;;;;;82.20;31.70;;;6.10;92.20;;;;;;5055847;28;20032;-79
2020/12/30 01:02:17;;;;;;;87.85;35.35;;;6.10;92.10;;;;;;5055815;28;20056;-79
2020/12/30 01:04:42;;;;;;;90.22;33.38;;;6.00;92.10;;;;;;5054946;28;20031;-78
2020/12/30 01:07:09;;;;;;;112.15;38.55;;;6.00;92.10;;;;;;5055425;28;20483;-78
2020/12/30 01:09:34;;;;;;;72.05;30.50;;;5.90;92.00;;;;;;5055432;28;20028;-78
2020/12/30 01:12:02;;;;;;;131.70;39.15;;;5.80;92.00;;;;;;5054173;28;20079;-79
2020/12/30 01:14:28;;;;;;;79.80;31.80;;;5.80;92.00;;;;;;5055320;28;20021;-78
2020/12/30 01:16:54;;;;;;;130.05;38.78;;;5.80;92.00;;;;;;5055379;28;20083;-78
2020/12/30 01:19:21;;;;;;;106.60;34.22;;;5.60;92.00;;;;;;5055193;28;20021;-78
2020/12/30 01:21:46;;;;;;;93.93;34.50;;;5.60;92.00;;;;;;5054021;28;20108;-79
2020/12/30 01:24:12;;;;;;;81.72;32.75;;;5.60;92.00;;;;;;5055188;28;20112;-78
2020/12/30 01:26:39;;;;;;;87.18;33.13;;;5.60;92.00;;;;;;5055271;28;20025;-78
2020/12/30 01:29:05;;;;;;;78.90;32.58;;;5.60;92.10;;;;;;5053843;28;20048;-78
2020/12/30 01:31:32;;;;;;;99.90;33.78;;;5.50;92.10;;;;;;5055138;28;20029;-78
2020/12/30 01:33:58;;;;;;;76.57;31.85;;;5.50;92.10;;;;;;5055363;28;20029;-78
2020/12/30 01:36:25;;;;;;;94.22;32.45;;;5.50;92.10;;;;;;5054890;28;20049;-78
2020/12/30 01:38:52;;;;;;;95.03;35.03;;;5.50;92.10;;;;;;5054885;28;20037;-78
2020/12/30 01:41:18;;;;;;;99.13;33.75;;;5.50;92.20;;;;;;5054638;28;20029;-78
2020/12/30 01:44:05;;;;;;;84.35;31.77;;;5.50;92.30;;;;;;5053676;28;20430;-78
2020/12/30 01:46:41;;;;;;;113.05;35.25;;;5.50;92.30;;;;;;5050799;28;20109;-78
2020/12/30 01:49:19;;;;;;;125.00;39.55;;;5.50;92.50;;;;;;5054769;28;20470;-78
2020/12/30 01:51:45;;;;;;;133.38;39.63;;;5.50;92.70;;;;;;5054639;28;20060;-78
2020/12/30 01:54:12;;;;;;;125.07;37.42;;;5.50;92.80;;;;;;5054568;28;20025;-78
2020/12/30 01:56:38;;;;;;;100.13;33.95;;;5.50;92.70;;;;;;5054601;28;20036;-78
2020/12/30 01:59:07;;;;;;;147.00;42.03;;;5.50;92.80;;;;;;5054834;28;20036;-78
2020/12/30 02:01:38;;;;;;;114.70;36.85;;;5.50;92.90;;;;;;5053173;28;20021;-78
2020/12/30 02:04:10;;;;;;;117.95;38.80;;;5.50;93.00;;;;;;5054438;28;20021;-78
2020/12/30 02:06:37;;;;;;;119.60;39.42;;;5.50;93.10;;;;;;5054630;28;20021;-78
2020/12/30 02:09:04;;;;;;;128.63;39.17;;;5.50;93.30;;;;;;5054666;28;20040;-78
2020/12/30 02:11:31;;;;;;;140.98;41.72;;;5.50;93.10;;;;;;5054027;28;20056;-78
2020/12/30 02:14:05;;;;;;;140.82;41.40;;;5.50;93.20;;;;;;5052892;28;20475;-78
2020/12/30 02:16:32;;;;;;;149.18;42.22;;;5.50;93.00;;;;;;5052088;28;20538;-78
2020/12/30 02:18:59;;;;;;;178.15;47.45;;;5.50;93.00;;;;;;5052781;28;20119;-78
2020/12/30 02:21:25;;;;;;;165.15;46.67;;;5.50;93.10;;;;;;5054116;28;20028;-78
2020/12/30 02:23:54;;;;;;;117.15;38.80;;;5.50;93.20;;;;;;5052834;28;20352;-79
2020/12/30 02:26:20;;;;;;;109.80;35.60;;;5.50;93.10;;;;;;5054069;28;20028;-78
2020/12/30 02:28:45;;;;;;;156.90;42.75;;;5.50;93.00;;;;;;5054027;28;20028;-78
2020/12/30 02:31:11;;;;;;;118.70;38.63;;;5.50;92.90;;;;;;5054295;28;20039;-78
2020/12/30 02:33:37;;;;;;;125.55;40.17;;;5.60;92.80;;;;;;5053914;28;20079;-78
2020/12/30 02:36:02;;;;;;;109.03;37.38;;;5.50;92.60;;;;;;5053865;28;20032;-78
2020/12/30 02:38:28;;;;;;;142.90;42.65;;;5.50;92.50;;;;;;5053701;28;20556;-77
2020/12/30 02:40:57;;;;;;;98.13;34.88;;;5.40;92.50;;;;;;5053807;28;20032;-78
2020/12/30 02:43:23;;;;;;;104.25;34.67;;;5.40;92.50;;;;;;5052616;28;20025;-78
2020/12/30 02:45:49;;;;;;;88.43;34.83;;;5.40;92.40;;;;;;5053671;28;20017;-78
2020/12/30 02:48:14;;;;;;;119.63;38.90;;;5.40;92.40;;;;;;5053589;28;20029;-78
2020/12/30 02:50:40;;;;;;;118.18;40.05;;;5.30;92.40;;;;;;5052390;28;20382;-78
2020/12/30 02:53:06;;;;;;;125.45;39.97;;;5.30;92.70;;;;;;5053875;28;20060;-78
2020/12/30 02:55:32;;;;;;;111.22;37.05;;;5.20;92.50;;;;;;5053902;28;20482;-78
2020/12/30 02:57:57;;;;;;;109.97;36.95;;;5.20;92.40;;;;;;5053570;28;20032;-78
2020/12/30 03:00:23;;;;;;;99.30;34.40;;;5.20;92.50;;;;;;5053450;28;20032;-78
2020/12/30 03:02:49;;;;;;;114.88;36.42;;;5.20;92.50;;;;;;5052274;28;20025;-78
2020/12/30 03:05:14;;;;;;;163.02;41.45;;;5.20;92.50;;;;;;5053793;28;20095;-78
2020/12/30 03:07:40;;;;;;;174.75;43.92;;;5.20;92.50;;;;;;5053552;28;20025;-78
2020/12/30 03:10:06;;;;;;;145.07;39.95;;;5.10;92.70;;;;;;5053582;28;20024;-78
2020/12/30 03:12:31;;;;;;;133.35;37.30;;;5.10;92.80;;;;;;5053475;28;20061;-78
2020/12/30 03:14:57;;;;;;;146.57;39.40;;;5.10;92.80;;;;;;5052219;28;20391;-78
2020/12/30 03:17:23;;;;;;;128.57;37.58;;;5.00;92.80;;;;;;5053762;28;20025;-78
2020/12/30 03:19:48;;;;;;;125.05;36.05;;;5.00;92.80;;;;;;5053255;28;20021;-79
2020/12/30 03:22:14;;;;;;;145.25;37.38;;;5.00;93.10;;;;;;5053771;28;20026;-78
2020/12/30 03:24:40;;;;;;;123.57;35.28;;;5.00;92.90;;;;;;5052201;28;20025;-78
2020/12/30 03:27:05;;;;;;;154.90;37.30;;;5.00;93.00;;;;;;5054989;28;20032;-78
2020/12/30 03:29:31;;;;;;;163.95;39.25;;;5.00;92.90;;;;;;5057249;28;20542;-78
2020/12/30 03:31:57;;;;;;;170.93;39.50;;;4.90;93.00;;;;;;5057222;28;20021;-78
2020/12/30 03:34:23;;;;;;;175.23;40.45;;;4.90;93.10;;;;;;5057291;28;20379;-78
2020/12/30 03:36:48;;;;;;;197.10;40.42;;;4.90;93.10;;;;;;5057162;28;20052;-78
2020/12/30 03:39:14;;;;;;;165.07;37.80;;;4.90;93.40;;;;;;5057049;28;20033;-78
2020/12/30 03:41:40;;;;;;;134.38;35.65;;;4.90;93.40;;;;;;5057077;28;20479;-78
2020/12/30 03:44:05;;;;;;;152.02;36.50;;;4.90;93.30;;;;;;5056932;28;20017;-78
2020/12/30 03:46:31;;;;;;;172.32;35.75;;;4.90;93.30;;;;;;5057027;28;20037;-78
2020/12/30 03:48:57;;;;;;;129.27;34.30;;;4.90;93.30;;;;;;5057200;28;20033;-78
2020/12/30 03:51:22;;;;;;;146.02;33.90;;;4.80;93.10;;;;;;5056732;28;20446;-78
2020/12/30 03:53:48;;;;;;;155.20;37.17;;;4.80;93.20;;;;;;5057186;28;20036;-78
2020/12/30 03:56:14;;;;;;;169.85;38.35;;;4.80;93.10;;;;;;5055670;28;20040;-78
2020/12/30 03:58:40;;;;;;;148.90;36.25;;;4.80;93.20;;;;;;5056613;28;20017;-78
2020/12/30 04:01:05;;;;;;;133.45;33.55;;;4.80;93.20;;;;;;5056957;28;20027;-78
2020/12/30 04:03:31;;;;;;;147.68;34.22;;;4.80;93.30;;;;;;5055276;28;20025;-78
2020/12/30 04:05:57;;;;;;;193.70;38.22;;;4.80;93.30;;;;;;5054188;28;20021;-79
2020/12/30 04:08:23;;;;;;;158.00;37.65;;;4.80;93.30;;;;;;5056510;28;20053;-78
2020/12/30 04:10:48;;;;;;;222.77;41.05;;;4.80;93.30;;;;;;5056574;28;20025;-78
2020/12/30 04:13:14;;;;;;;194.32;37.78;;;4.80;93.40;;;;;;5055066;28;20031;-78
2020/12/30 04:15:40;;;;;;;205.38;36.53;;;4.80;93.40;;;;;;5056578;28;20032;-78
2020/12/30 04:18:05;;;;;;;182.70;39.47;;;4.80;93.30;;;;;;5056370;28;20107;-78
2020/12/30 04:20:31;;;;;;;162.23;34.58;;;4.80;93.40;;;;;;5056429;28;20032;-78
2020/12/30 04:22:57;;;;;;;146.98;33.72;;;4.90;93.40;;;;;;5056285;28;20024;-78
2020/12/30 04:25:23;;;;;;;116.03;32.10;;;4.90;93.30;;;;;;5055525;28;20520;-78
2020/12/30 04:27:48;;;;;;;281.85;45.80;;;4.90;93.30;;;;;;5055480;28;20020;-78
2020/12/30 04:30:14;;;;;;;180.88;37.35;;;4.90;93.40;;;;;;5055261;28;20509;-78
2020/12/30 04:32:40;;;;;;;147.45;36.05;;;4.90;93.40;;;;;;5056115;28;20021;-78
2020/12/30 04:35:06;;;;;;;192.90;38.95;;;4.90;93.50;;;;;;5056024;28;20028;-78
2020/12/30 04:37:32;;;;;;;186.57;37.72;;;4.80;93.50;;;;;;5055755;28;20053;-78
2020/12/30 04:39:57;;;;;;;241.63;43.58;;;4.80;93.40;;;;;;5055213;28;20021;-79
2020/12/30 04:42:51;;;;;;;134.02;32.90;;;4.80;93.30;;;;;;5054628;28;20021;-78
2020/12/30 04:45:18;;;;;;;180.52;37.95;;;4.80;93.30;;;;;;5053982;28;20056;-78
2020/12/30 04:47:47;;;;;;;180.27;37.15;;;4.80;93.20;;;;;;5055806;28;20055;-78
2020/12/30 04:50:13;;;;;;;182.43;37.50;;;4.70;93.30;;;;;;5055463;28;20029;-78
2020/12/30 04:52:40;;;;;;;203.13;38.95;;;4.70;93.30;;;;;;5055798;28;20075;-78
2020/12/30 04:55:06;;;;;;;229.32;41.67;;;4.70;93.30;;;;;;5055876;28;20045;-78
2020/12/30 04:58:05;;;;;;;159.10;35.40;;;4.60;93.20;;;;;;5055716;28;20025;-78
2020/12/30 05:00:35;;;;;;;169.07;36.05;;;4.60;93.30;;;;;;5043526;28;20486;-78
2020/12/30 05:03:05;;;;;;;260.67;45.85;;;4.50;93.30;;;;;;5055853;28;20021;-78
2020/12/30 05:05:33;;;;;;;165.32;37.33;;;4.50;93.30;;;;;;5055445;28;20029;-78
2020/12/30 05:07:58;;;;;;;210.40;42.50;;;4.50;93.40;;;;;;5055518;28;20029;-78
2020/12/30 05:10:24;;;;;;;182.85;38.75;;;4.40;93.30;;;;;;5055484;28;20108;-78
2020/12/30 05:12:53;;;;;;;197.13;42.05;;;4.50;93.30;;;;;;5055274;28;20161;-78
2020/12/30 05:15:20;;;;;;;222.25;43.40;;;4.50;93.40;;;;;;5055332;28;20021;-78
2020/12/30 05:17:46;;;;;;;380.20;58.22;;;4.40;93.60;;;;;;5053961;28;20473;-78
2020/12/30 05:20:11;;;;;;;244.98;47.95;;;4.40;93.90;;;;;;5054855;28;20092;-78
2020/12/30 05:22:37;;;;;;;180.23;41.22;;;4.40;94.00;;;;;;5054912;28;20025;-78
2020/12/30 05:25:05;;;;;;;170.80;39.90;;;4.40;94.10;;;;;;5054862;28;20483;-78
2020/12/30 05:27:31;;;;;;;197.30;41.00;;;4.40;94.00;;;;;;5055059;28;20023;-78
2020/12/30 05:29:57;;;;;;;309.40;50.85;;;4.30;94.00;;;;;;5055010;28;20057;-78
2020/12/30 05:32:24;;;;;;;234.43;44.40;;;4.40;93.90;;;;;;5055005;28;20029;-78
2020/12/30 05:34:49;;;;;;;226.80;45.78;;;4.40;93.90;;;;;;5054930;28;20021;-78
2020/12/30 05:37:15;;;;;;;178.30;40.08;;;4.40;93.90;;;;;;5054818;28;20063;-78
2020/12/30 05:39:41;;;;;;;176.68;38.63;;;4.40;94.00;;;;;;5054781;28;20112;-78
2020/12/30 05:42:18;;;;;;;175.85;38.85;;;4.40;93.90;;;;;;5054655;28;20021;-79
2020/12/30 05:44:45;;;;;;;195.40;39.67;;;4.40;93.70;;;;;;5054691;28;20111;-78
2020/12/30 05:47:22;;;;;;;184.65;38.45;;;4.40;93.70;;;;;;5054815;28;20056;-77
2020/12/30 05:49:50;;;;;;;286.05;42.85;;;4.40;93.70;;;;;;5054592;28;20049;-77
2020/12/30 05:52:19;;;;;;;135.93;34.05;;;4.50;93.70;;;;;;5054786;28;20107;-78
2020/12/30 05:54:53;;;;;;;184.55;35.67;;;4.50;93.60;;;;;;5054506;28;20078;-78
2020/12/30 05:57:24;;;;;;;373.88;51.95;;;4.50;93.50;;;;;;5054645;28;20105;-78
2020/12/30 05:59:55;;;;;;;196.30;38.72;;;4.50;93.50;;;;;;5054331;28;20044;-78
2020/12/30 06:02:27;;;;;;;141.63;35.08;;;4.50;93.50;;;;;;5054840;28;20067;-78
2020/12/30 06:04:54;;;;;;;144.90;32.88;;;4.50;93.40;;;;;;5053353;28;20433;-78
2020/12/30 06:07:20;;;;;;;191.02;38.42;;;4.60;93.40;;;;;;5053171;28;20025;-78
2020/12/30 06:09:55;;;;;;;169.35;37.13;;;4.50;93.30;;;;;;5054670;28;20047;-78
2020/12/30 06:12:26;;;;;;;250.48;42.85;;;4.60;93.20;;;;;;5054828;28;20017;-78
2020/12/30 06:14:53;;;;;;;161.70;34.90;;;4.60;93.20;;;;;;5053208;28;20413;-78
2020/12/30 06:17:30;;;;;;;109.20;31.02;;;4.60;93.10;;;;;;5054419;28;20021;-78
2020/12/30 06:19:57;;;;;;;147.18;33.08;;;4.60;93.10;;;;;;5054142;28;20103;-78
2020/12/30 06:22:23;;;;;;;109.70;31.17;;;4.60;93.00;;;;;;5054571;28;20013;-78
2020/12/30 06:24:51;;;;;;;108.03;31.20;;;4.60;93.00;;;;;;5054439;28;20044;-78
2020/12/30 06:27:22;;;;;;;126.72;33.67;;;4.70;93.00;;;;;;5054273;28;20048;-78
2020/12/30 06:29:50;;;;;;;164.27;37.97;;;4.70;93.00;;;;;;5054379;28;20091;-78
2020/12/30 06:32:27;;;;;;;109.35;33.50;;;4.70;92.90;;;;;;5054143;28;20025;-78
2020/12/30 06:34:52;;;;;;;169.93;37.00;;;4.70;92.90;;;;;;5054068;28;20429;-78
2020/12/30 06:37:26;;;;;;;101.93;30.85;;;4.80;92.90;;;;;;5052738;28;20053;-78
2020/12/30 06:40:17;;;;;;;127.38;31.08;;;4.80;92.90;;;;;;5053960;28;20563;-78
2020/12/30 06:42:44;;;;;;;138.30;35.22;;;4.80;92.90;;;;;;5052643;28;20441;-78
2020/12/30 06:45:15;;;;;;;174.60;40.28;;;4.90;92.90;;;;;;5053914;28;20067;-78
2020/12/30 06:48:07;;;;;;;132.50;37.92;;;4.90;92.90;;;;;;5053903;28;20067;-78
2020/12/30 06:50:33;;;;;;;139.23;38.58;;;4.90;92.90;;;;;;5050900;28;20036;-78
2020/12/30 06:53:24;;;;;;;131.20;39.00;;;5.00;92.90;;;;;;5053798;28;20455;-78
2020/12/30 06:55:51;;;;;;;204.13;50.10;;;5.00;92.90;;;;;;5054127;28;20025;-77
2020/12/30 06:58:51;;;;;;;148.45;42.90;;;5.00;92.90;;;;;;5053616;28;20025;-78
2020/12/30 07:01:19;;;;;;;150.13;41.75;;;5.00;93.00;;;;;;5052245;28;20018;-78
2020/12/30 07:03:46;;;;;;;159.93;43.25;;;5.10;93.00;;;;;;5053793;28;20036;-78
2020/12/30 07:06:21;;;;;;;156.77;46.33;;;5.10;93.00;;;;;;5053643;28;20094;-78
2020/12/30 07:08:46;;;;;;;181.40;53.22;;;5.20;93.00;;;;;;5053673;28;20104;-78
2020/12/30 07:11:12;;;;;;;249.43;62.75;;;5.20;93.00;;;;;;5052359;28;20136;-78
2020/12/30 07:13:41;;;;;;;166.55;49.63;;;5.20;93.20;;;;;;5053508;28;20029;-78
2020/12/30 07:16:19;;;;;;;159.27;45.70;;;5.30;93.20;;;;;;5053531;28;20021;-78
2020/12/30 07:18:51;;;;;;;144.05;48.15;;;5.40;93.10;;;;;;5052415;28;20687;-78
2020/12/30 07:21:17;;;;;;;217.75;60.05;;;5.40;93.40;;;;;;5053839;28;20032;-78
2020/12/30 07:23:45;;;;;;;201.95;58.72;;;5.50;93.50;;;;;;5053624;28;20026;-78
2020/12/30 07:26:19;;;;;;;263.67;70.78;;;5.50;93.30;;;;;;5053672;28;20143;-78
2020/12/30 07:28:46;;;;;;;257.58;75.45;;;5.60;93.40;;;;;;5053535;28;20470;-78
2020/12/30 07:31:13;;;;;;;205.38;63.70;;;5.60;93.50;;;;;;5053447;28;20410;-78
2020/12/30 07:33:40;;;;;;;187.25;62.92;;;5.70;93.40;;;;;;5052210;28;20029;-78
2020/12/30 07:36:09;;;;;;;169.60;61.60;;;5.80;93.30;;;;;;5053319;28;20049;-78
2020/12/30 07:38:37;;;;;;;178.25;63.13;;;5.80;93.20;;;;;;5053566;28;20116;-78
2020/12/30 07:41:08;;;;;;;152.48;57.50;;;5.80;93.10;;;;;;5052278;28;20352;-78
2020/12/30 07:43:53;;;;;;;140.32;54.28;;;5.90;93.10;;;;;;5053346;28;20470;-78
2020/12/30 07:46:22;;;;;;;156.75;58.05;;;5.90;93.00;;;;;;5053320;28;20051;-78
2020/12/30 07:48:48;;;;;;;148.40;56.58;;;5.90;93.00;;;;;;5053663;28;20028;-78
2020/12/30 07:51:14;;;;;;;137.90;50.67;;;5.90;93.00;;;;;;5053666;28;20103;-78
2020/12/30 07:53:52;;;;;;;148.15;56.13;;;5.90;93.00;;;;;;5053370;28;20099;-78
2020/12/30 07:56:23;;;;;;;212.40;69.85;;;5.90;93.10;;;;;;5051971;28;20463;-78
2020/12/30 07:58:49;;;;;;;170.88;58.65;;;6.00;93.20;;;;;;5053173;28;20029;-78
2020/12/30 08:01:17;;;;;;;178.40;67.28;;;6.00;93.20;;;;;;5051879;28;20108;-79
2020/12/30 08:03:42;;;;;;;159.20;61.85;;;6.00;93.40;;;;;;5053573;28;20096;-78
2020/12/30 08:06:09;;;;;;;153.40;61.95;;;6.10;93.40;;;;;;5053192;28;20021;-78
2020/12/30 08:08:41;;;;;;;150.25;62.13;;;6.20;93.30;;;;;;5051848;28;20024;-78
2020/12/30 08:11:07;;;;;;;193.65;79.03;;;6.20;93.40;;;;;;5051919;28;20025;-78
2020/12/30 08:13:33;;;;;;;204.73;85.28;;;6.30;93.20;;;;;;5052297;28;20032;-78
2020/12/30 08:15:59;;;;;;;222.20;86.90;;;6.40;93.20;;;;;;5056761;28;20109;-78
2020/12/30 08:18:25;;;;;;;229.82;88.60;;;6.40;93.40;;;;;;5056641;28;20043;-78
2020/12/30 08:20:50;;;;;;;224.55;89.10;;;6.50;93.30;;;;;;5057197;28;20451;-78
2020/12/30 08:23:19;;;;;;;203.63;83.45;;;6.50;93.40;;;;;;5056533;28;20032;-78
2020/12/30 08:25:48;;;;;;;181.60;69.65;;;6.60;93.50;;;;;;5056568;28;20467;-78
2020/12/30 08:28:15;;;;;;;182.15;68.70;;;6.70;93.50;;;;;;5056343;28;20028;-78
2020/12/30 08:30:42;;;;;;;150.77;59.88;;;6.70;93.40;;;;;;5056574;28;20025;-78
2020/12/30 08:33:12;;;;;;;190.73;70.18;;;6.80;93.30;;;;;;5056361;28;20025;-78
2020/12/30 08:35:47;;;;;;;244.15;78.93;;;6.90;93.40;;;;;;5056246;28;20056;-78
2020/12/30 08:38:17;;;;;;;226.35;70.28;;;6.90;93.40;;;;;;5056464;28;20047;-78
2020/12/30 08:40:49;;;;;;;206.25;65.00;;;7.00;93.40;;;;;;5056282;28;20024;-78
2020/12/30 08:43:31;;;;;;;188.18;58.20;;;7.00;93.30;;;;;;5056193;28;20400;-78
2020/12/30 08:46:08;;;;;;;166.35;52.53;;;7.10;93.40;;;;;;5056188;28;20021;-78
2020/12/30 08:48:45;;;;;;;153.80;50.10;;;7.10;93.50;;;;;;5056170;28;20017;-78
2020/12/30 08:51:11;;;;;;;181.63;55.67;;;7.20;93.40;;;;;;5056346;28;20043;-79
2020/12/30 08:53:40;;;;;;;161.90;53.00;;;7.20;93.60;;;;;;5056093;28;20025;-78
2020/12/30 08:56:07;;;;;;;160.02;49.47;;;7.30;93.50;;;;;;5055942;28;20021;-78
2020/12/30 08:58:33;;;;;;;181.57;54.08;;;7.30;93.30;;;;;;5056093;28;20021;-78
2020/12/30 09:00:59;;;;;;;168.88;49.30;;;7.50;93.40;;;;;;5055678;28;20021;-78
2020/12/30 09:03:29;;;;;;;169.73;49.95;;;7.50;93.30;;;;;;5055809;28;20036;-78
2020/12/30 09:05:56;;;;;;;140.23;46.13;;;7.60;93.40;;;;;;5055985;28;20028;-78
2020/12/30 09:08:24;;;;;;;160.65;48.38;;;7.60;93.40;;;;;;5055595;28;20374;-78
2020/12/30 09:10:51;;;;;;;135.13;43.88;;;7.70;93.40;;;;;;5055617;28;20102;-78
2020/12/30 09:13:27;;;;;;;142.73;44.80;;;7.80;93.30;;;;;;5055515;28;20029;-78
2020/12/30 09:15:56;;;;;;;131.13;43.17;;;7.80;93.20;;;;;;5055475;28;20102;-78
2020/12/30 09:18:23;;;;;;;113.50;40.58;;;7.90;93.20;;;;;;5055662;28;20120;-78
2020/12/30 09:20:49;;;;;;;144.23;44.60;;;7.90;93.10;;;;;;5055374;28;20032;-78
2020/12/30 09:23:16;;;;;;;118.78;39.90;;;8.00;93.20;;;;;;5055231;28;20059;-78
2020/12/30 09:25:42;;;;;;;135.00;43.58;;;8.00;93.10;;;;;;5054838;28;20025;-78
2020/12/30 09:28:18;;;;;;;157.38;48.50;;;8.10;93.00;;;;;;5054407;28;20040;-78
2020/12/30 09:30:46;;;;;;;166.10;50.08;;;8.20;93.00;;;;;;5055308;28;20108;-78
2020/12/30 09:33:13;;;;;;;120.80;43.17;;;8.30;93.20;;;;;;5053760;28;20052;-78
2020/12/30 09:35:40;;;;;;;110.78;41.38;;;8.30;92.80;;;;;;5055310;28;20025;-78
2020/12/30 09:38:05;;;;;;;95.28;35.92;;;8.30;92.70;;;;;;5054852;28;20131;-78
2020/12/30 09:40:40;;;;;;;87.10;34.10;;;8.30;92.70;;;;;;5055017;28;20104;-78
2020/12/30 09:43:17;;;;;;;103.25;36.75;;;8.30;92.60;;;;;;5055116;28;20437;-79
2020/12/30 09:45:43;;;;;;;100.45;35.30;;;8.40;92.60;;;;;;5055269;28;20024;-78
2020/12/30 09:48:17;;;;;;;103.45;35.38;;;8.40;92.60;;;;;;5054862;28;20025;-78
2020/12/30 09:50:45;;;;;;;78.93;30.77;;;8.50;92.60;;;;;;5055001;28;20025;-78
2020/12/30 09:53:11;;;;;;;73.45;28.40;;;8.50;92.50;;;;;;5054839;28;20025;-78
2020/12/30 09:55:37;;;;;;;96.10;36.35;;;8.50;92.40;;;;;;5054666;28;20537;-78
2020/12/30 09:58:04;;;;;;;95.80;34.85;;;8.60;92.40;;;;;;5054843;28;20475;-78
2020/12/30 10:00:30;;;;;;;76.80;30.75;;;8.60;92.40;;;;;;5054503;28;20025;-78
2020/12/30 10:02:56;;;;;;;77.07;32.60;;;8.60;92.40;;;;;;5053418;28;20074;-78
2020/12/30 10:05:22;;;;;;;72.65;30.25;;;8.70;92.30;;;;;;5054644;28;20024;-78
2020/12/30 10:07:48;;;;;;;70.45;29.48;;;8.70;92.30;;;;;;5054199;28;20051;-78
2020/12/30 10:10:14;;;;;;;75.82;32.17;;;8.70;92.30;;;;;;5054435;28;20021;-78
2020/12/30 10:12:40;;;;;;;69.00;28.60;;;8.80;92.30;;;;;;5054503;28;20379;-78
2020/12/30 10:15:10;;;;;;;59.95;26.17;;;8.80;92.20;;;;;;5054490;28;20379;-78
2020/12/30 10:17:36;;;;;;;51.15;27.30;;;8.90;92.20;;;;;;5054407;28;20044;-78
2020/12/30 10:20:04;;;;;;;60.20;27.50;;;8.90;92.20;;;;;;5054525;28;20043;-78
2020/12/30 10:22:31;;;;;;;58.03;26.88;;;9.00;92.30;;;;;;5054262;28;20398;-79
2020/12/30 10:24:57;;;;;;;52.50;26.15;;;9.00;92.20;;;;;;5054243;28;20547;-78
2020/12/30 10:27:23;;;;;;;41.67;23.20;;;9.10;92.20;;;;;;5054085;28;20025;-78
2020/12/30 10:29:49;;;;;;;40.17;23.20;;;9.10;92.10;;;;;;5054731;28;20103;-79
2020/12/30 10:32:15;;;;;;;41.28;23.08;;;9.20;92.10;;;;;;5054335;28;20021;-79
2020/12/30 10:34:40;;;;;;;40.55;24.30;;;9.20;92.00;;;;;;5054128;28;20021;-79
2020/12/30 10:37:07;;;;;;;39.50;24.90;;;9.30;92.00;;;;;;5053025;28;20048;-78
2020/12/30 10:39:33;;;;;;;37.17;23.98;;;9.40;92.00;;;;;;5054492;28;20044;-78
2020/12/30 10:42:00;;;;;;;35.40;22.27;;;9.50;91.90;;;;;;5053893;28;20052;-78
2020/12/30 10:44:25;;;;;;;34.97;21.42;;;9.60;91.80;;;;;;5054118;28;20025;-79
2020/12/30 10:46:52;;;;;;;49.58;23.65;;;9.60;91.80;;;;;;5054184;28;20025;-78
2020/12/30 10:49:19;;;;;;;42.05;22.23;;;9.60;91.60;;;;;;5053751;28;20028;-79
2020/12/30 10:51:46;;;;;;;36.75;20.80;;;9.60;91.40;;;;;;5052671;28;20029;-78
2020/12/30 10:54:12;;;;;;;35.75;21.15;;;9.70;91.50;;;;;;5053813;28;20100;-78
2020/12/30 10:56:38;;;;;;;31.52;19.27;;;9.60;91.30;;;;;;5054201;28;20021;-78
2020/12/30 10:59:04;;;;;;;30.63;18.33;;;9.70;91.30;;;;;;5053587;28;20032;-78
2020/12/30 11:01:30;;;;;;;47.88;21.63;;;9.70;91.30;;;;;;5053716;28;20517;-79
2020/12/30 11:03:56;;;;;;;40.53;20.38;;;9.80;91.20;;;;;;5053666;28;20017;-79
2020/12/30 11:06:22;;;;;;;40.13;22.35;;;9.80;91.30;;;;;;5053828;28;20024;-78
2020/12/30 11:08:48;;;;;;;36.42;21.35;;;9.80;91.20;;;;;;5053684;28;20032;-78
2020/12/30 11:11:14;;;;;;;35.10;20.17;;;9.90;91.20;;;;;;5053617;28;20021;-78
2020/12/30 11:13:42;;;;;;;32.42;18.15;;;9.90;91.10;;;;;;5053947;28;20025;-79
2020/12/30 11:16:09;;;;;;;31.27;17.83;;;9.90;91.10;;;;;;5052411;28;20032;-78
2020/12/30 11:18:35;;;;;;;27.75;16.10;;;10.00;90.80;;;;;;5053456;28;20029;-79
2020/12/30 11:21:00;;;;;;;32.28;18.42;;;10.00;90.90;;;;;;5053458;28;20028;-80
2020/12/30 11:23:26;;;;;;;27.00;15.98;;;9.90;90.60;;;;;;5053403;28;20025;-80
2020/12/30 11:25:54;;;;;;;29.65;17.30;;;10.00;91.00;;;;;;5053514;28;20060;-78
2020/12/30 11:28:20;;;;;;;23.15;15.20;;;10.00;90.70;;;;;;5052332;28;20115;-79
2020/12/30 11:30:46;;;;;;;26.95;15.90;;;10.00;90.60;;;;;;5053625;28;20025;-78
2020/12/30 11:33:11;;;;;;;35.50;17.15;;;10.00;90.60;;;;;;5053497;28;20360;-80
2020/12/30 11:35:38;;;;;;;28.45;16.20;;;9.90;90.40;;;;;;5053490;28;20036;-79
2020/12/30 11:38:04;;;;;;;38.05;20.60;;;9.90;90.40;;;;;;5051985;28;20059;-79
2020/12/30 11:40:30;;;;;;;44.45;24.13;;;9.90;90.50;;;;;;5053513;28;20021;-80
2020/12/30 11:42:56;;;;;;;29.88;18.65;;;9.90;90.30;;;;;;5053510;28;20017;-80
2020/12/30 11:45:21;;;;;;;31.75;19.85;;;9.90;90.40;;;;;;5053485;28;20439;-80
2020/12/30 11:47:47;;;;;;;27.73;17.30;;;9.80;90.30;;;;;;5054465;28;20501;-80
2020/12/30 11:50:14;;;;;;;26.30;16.58;;;9.80;90.40;;;;;;5057308;28;20056;-80
2020/12/30 11:52:41;;;;;;;22.70;15.38;;;9.80;90.40;;;;;;5055951;28;20372;-80
2020/12/30 11:55:07;;;;;;;32.35;18.20;;;9.90;90.60;;;;;;5057176;28;20021;-79
2020/12/30 11:57:33;;;;;;;32.85;19.05;;;9.80;90.40;;;;;;5055748;28;20029;-79
2020/12/30 11:59:58;;;;;;;32.95;18.00;;;9.80;90.50;;;;;;5055663;28;20028;-80
2020/12/30 12:02:24;;;;;;;36.17;20.15;;;9.80;90.50;;;;;;5057091;28;20032;-80
2020/12/30 12:04:50;;;;;;;37.22;21.58;;;9.80;90.50;;;;;;5056973;28;20021;-80
2020/12/30 12:07:15;;;;;;;39.75;24.30;;;9.80;90.50;;;;;;5057001;28;20025;-80
2020/12/30 12:09:41;;;;;;;34.85;19.85;;;9.80;90.50;;;;;;5057303;28;20040;-80
2020/12/30 12:12:07;;;;;;;30.98;18.08;;;9.70;90.50;;;;;;5056888;28;20574;-80
2020/12/30 12:14:33;;;;;;;35.97;19.88;;;9.80;90.60;;;;;;5057057;28;20021;-80
2020/12/30 12:16:58;;;;;;;41.13;21.48;;;9.80;90.60;;;;;;5055832;28;20029;-81
2020/12/30 12:19:25;;;;;;;40.08;21.08;;;9.80;90.50;;;;;;5056610;28;20024;-78
2020/12/30 12:21:51;;;;;;;44.20;20.60;;;9.70;90.60;;;;;;5056864;28;20031;-79
2020/12/30 12:24:18;;;;;;;33.72;20.00;;;9.70;90.70;;;;;;5056474;28;20048;-79
2020/12/30 12:26:44;;;;;;;32.65;17.45;;;9.70;90.70;;;;;;5055387;28;20430;-79
2020/12/30 12:29:43;;;;;;;30.75;18.10;;;9.70;90.70;;;;;;5056293;28;20029;-79
2020/12/30 12:32:23;;;;;;;43.72;20.38;;;9.70;90.60;;;;;;5056420;28;20100;-79
2020/12/30 12:34:51;;;;;;;47.08;24.83;;;9.70;90.70;;;;;;5056458;28;20029;-79